sensor_id;sensor_type;location;lat;lon;timestamp;pressure;altitude;pressure_sealevel;temperature;humidity
10716;BME280;5409;42.620;23.316;2023-02-13T00:00:37;93799.00;;;-2.87;100.00
10716;BME280;5409;42.620;23.316;2023-02-13T00:03:04;93786.47;;;-2.86;100.00
10716;BME280;5409;42.620;23.316;2023-02-13T00:05:31;93786.47;;;-2.86;100.00
10716;BME280;5409;42.620;23.316;2023-02-13T00:07:58;93783.63;;;-2.90;100.00
10716;BME280;5409;42.620;23.316;2023-02-13T00:10:24;93761.31;;;-3.14;100.00
10716;BME280;5409;42.620;23.316;2023-02-13T00:12:53;93785.75;;;-3.04;100.00
10716;BME280;5409;42.620;23.316;2023-02-13T00:15:19;93764.25;;;-3.07;100.00
10716;BME280;5409;42.620;23.316;2023-02-13T00:17:46;93793.28;;;-3.06;100.00
10716;BME280;5409;42.620;23.316;2023-02-13T00:20:13;93792.81;;;-3.08;100.00
10716;BME280;5409;42.620;23.316;2023-02-13T00:22:40;93791.53;;;-3.02;100.00
10716;BME280;5409;42.620;23.316;2023-02-13T00:25:07;93786.06;;;-3.05;100.00
10716;BME280;5409;42.620;23.316;2023-02-13T00:27:34;93798.56;;;-2.97;100.00
10716;BME280;5409;42.620;23.316;2023-02-13T00:30:03;93800.47;;;-2.98;100.00
10716;BME280;5409;42.620;23.316;2023-02-13T00:32:30;93797.19;;;-3.03;100.00
10716;BME280;5409;42.620;23.316;2023-02-13T00:34:57;93800.09;;;-2.88;100.00
10716;BME280;5409;42.620;23.316;2023-02-13T00:37:24;93803.41;;;-2.91;100.00
10716;BME280;5409;42.620;23.316;2023-02-13T00:39:51;93790.16;;;-3.08;100.00
10716;BME280;5409;42.620;23.316;2023-02-13T00:42:18;93778.84;;;-3.05;100.00
10716;BME280;5409;42.620;23.316;2023-02-13T00:44:48;93796.19;;;-2.90;100.00
10716;BME280;5409;42.620;23.316;2023-02-13T00:47:16;93800.91;;;-2.87;100.00
10716;BME280;5409;42.620;23.316;2023-02-13T00:49:44;93789.16;;;-2.95;100.00
10716;BME280;5409;42.620;23.316;2023-02-13T00:52:10;93804.34;;;-2.87;100.00
10716;BME280;5409;42.620;23.316;2023-02-13T00:54:37;93797.91;;;-2.86;100.00
10716;BME280;5409;42.620;23.316;2023-02-13T00:57:04;93810.97;;;-2.93;100.00
10716;BME280;5409;42.620;23.316;2023-02-13T00:59:31;93786.25;;;-3.10;100.00
10716;BME280;5409;42.620;23.316;2023-02-13T01:01:58;93806.88;;;-2.90;100.00
10716;BME280;5409;42.620;23.316;2023-02-13T01:04:26;93807.03;;;-2.95;100.00
10716;BME280;5409;42.620;23.316;2023-02-13T01:06:53;93807.69;;;-2.98;100.00
10716;BME280;5409;42.620;23.316;2023-02-13T01:09:19;93808.47;;;-3.06;100.00
10716;BME280;5409;42.620;23.316;2023-02-13T01:11:46;93811.16;;;-3.06;100.00
10716;BME280;5409;42.620;23.316;2023-02-13T01:14:13;93815.38;;;-2.97;100.00
10716;BME280;5409;42.620;23.316;2023-02-13T01:16:40;93808.94;;;-2.96;100.00
10716;BME280;5409;42.620;23.316;2023-02-13T01:19:07;93776.81;;;-3.08;100.00
10716;BME280;5409;42.620;23.316;2023-02-13T01:21:35;93792.31;;;-2.93;100.00
10716;BME280;5409;42.620;23.316;2023-02-13T01:24:03;93797.34;;;-3.00;100.00
10716;BME280;5409;42.620;23.316;2023-02-13T01:26:30;93812.09;;;-3.02;100.00
10716;BME280;5409;42.620;23.316;2023-02-13T01:28:57;93821.81;;;-3.06;100.00
10716;BME280;5409;42.620;23.316;2023-02-13T01:31:24;93804.31;;;-3.24;100.00
10716;BME280;5409;42.620;23.316;2023-02-13T01:33:51;93806.34;;;-3.21;100.00
10716;BME280;5409;42.620;23.316;2023-02-13T01:36:18;93811.97;;;-3.14;100.00
10716;BME280;5409;42.620;23.316;2023-02-13T01:38:51;93808.81;;;-3.08;100.00
10716;BME280;5409;42.620;23.316;2023-02-13T01:41:18;93815.72;;;-3.07;100.00
10716;BME280;5409;42.620;23.316;2023-02-13T01:43:48;93815.03;;;-2.95;100.00
10716;BME280;5409;42.620;23.316;2023-02-13T01:46:19;93822.88;;;-2.90;100.00
10716;BME280;5409;42.620;23.316;2023-02-13T01:48:48;93819.44;;;-2.99;100.00
10716;BME280;5409;42.620;23.316;2023-02-13T01:51:19;93819.75;;;-2.92;100.00
10716;BME280;5409;42.620;23.316;2023-02-13T01:53:52;93813.19;;;-3.03;100.00
10716;BME280;5409;42.620;23.316;2023-02-13T01:56:24;93809.94;;;-3.17;100.00
10716;BME280;5409;42.620;23.316;2023-02-13T01:58:55;93813.72;;;-3.18;100.00
10716;BME280;5409;42.620;23.316;2023-02-13T02:01:23;93835.78;;;-3.09;100.00
10716;BME280;5409;42.620;23.316;2023-02-13T02:03:54;93825.13;;;-3.09;100.00
10716;BME280;5409;42.620;23.316;2023-02-13T02:06:26;93818.88;;;-3.13;100.00
10716;BME280;5409;42.620;23.316;2023-02-13T02:08:57;93836.59;;;-3.09;100.00
10716;BME280;5409;42.620;23.316;2023-02-13T02:11:32;93825.13;;;-3.01;100.00
10716;BME280;5409;42.620;23.316;2023-02-13T02:14:01;93815.69;;;-2.98;100.00
10716;BME280;5409;42.620;23.316;2023-02-13T02:16:28;93817.19;;;-2.80;100.00
10716;BME280;5409;42.620;23.316;2023-02-13T02:18:57;93817.19;;;-2.80;100.00
10716;BME280;5409;42.620;23.316;2023-02-13T02:24:46;93808.56;;;-2.77;100.00
10716;BME280;5409;42.620;23.316;2023-02-13T02:27:22;93818.31;;;-2.81;100.00
10716;BME280;5409;42.620;23.316;2023-02-13T02:33:15;93817.88;;;-2.92;100.00
10716;BME280;5409;42.620;23.316;2023-02-13T02:35:50;93816.47;;;-2.98;100.00
10716;BME280;5409;42.620;23.316;2023-02-13T02:38:30;93815.38;;;-2.97;100.00
10716;BME280;5409;42.620;23.316;2023-02-13T02:41:06;93810.69;;;-3.08;100.00
10716;BME280;5409;42.620;23.316;2023-02-13T02:43:47;93814.63;;;-3.06;100.00
10716;BME280;5409;42.620;23.316;2023-02-13T02:46:20;93822.03;;;-3.11;100.00
10716;BME280;5409;42.620;23.316;2023-02-13T02:48:55;93844.44;;;-3.21;100.00
10716;BME280;5409;42.620;23.316;2023-02-13T02:51:44;93835.34;;;-3.20;100.00
10716;BME280;5409;42.620;23.316;2023-02-13T02:54:16;93838.19;;;-3.25;100.00
10716;BME280;5409;42.620;23.316;2023-02-13T02:57:08;93848.06;;;-3.25;100.00
10716;BME280;5409;42.620;23.316;2023-02-13T02:59:39;93848.38;;;-3.18;100.00
10716;BME280;5409;42.620;23.316;2023-02-13T03:02:23;93852.59;;;-3.09;100.00
10716;BME280;5409;42.620;23.316;2023-02-13T03:05:27;93848.34;;;-3.10;100.00
10716;BME280;5409;42.620;23.316;2023-02-13T03:08:13;93852.28;;;-3.16;100.00
10716;BME280;5409;42.620;23.316;2023-02-13T03:10:40;93846.00;;;-3.20;100.00
10716;BME280;5409;42.620;23.316;2023-02-13T03:13:33;93845.19;;;-3.03;100.00
10716;BME280;5409;42.620;23.316;2023-02-13T03:16:04;93851.97;;;-3.06;100.00
10716;BME280;5409;42.620;23.316;2023-02-13T03:18:51;93843.34;;;-3.11;100.00
10716;BME280;5409;42.620;23.316;2023-02-13T03:21:46;93827.38;;;-3.28;100.00
10716;BME280;5409;42.620;23.316;2023-02-13T03:24:40;93846.19;;;-3.16;100.00
10716;BME280;5409;42.620;23.316;2023-02-13T03:27:16;93846.00;;;-3.20;100.00
10716;BME280;5409;42.620;23.316;2023-02-13T03:30:15;93843.25;;;-3.32;100.00
10716;BME280;5409;42.620;23.316;2023-02-13T03:32:48;93841.50;;;-3.36;100.00
10716;BME280;5409;42.620;23.316;2023-02-13T03:35:25;93851.09;;;-3.43;100.00
10716;BME280;5409;42.620;23.316;2023-02-13T03:38:19;93849.69;;;-3.49;100.00
10716;BME280;5409;42.620;23.316;2023-02-13T03:40:49;93843.56;;;-3.58;100.00
10716;BME280;5409;42.620;23.316;2023-02-13T03:43:41;93855.16;;;-3.54;100.00
10716;BME280;5409;42.620;23.316;2023-02-13T03:46:11;93851.41;;;-3.53;100.00
10716;BME280;5409;42.620;23.316;2023-02-13T03:48:41;93851.72;;;-3.46;100.00
10716;BME280;5409;42.620;23.316;2023-02-13T03:51:29;93844.19;;;-3.44;100.00
10716;BME280;5409;42.620;23.316;2023-02-13T03:54:02;93841.03;;;-3.38;100.00
10716;BME280;5409;42.620;23.316;2023-02-13T03:56:33;93843.09;;;-3.43;100.00
10716;BME280;5409;42.620;23.316;2023-02-13T03:59:21;93845.78;;;-3.52;100.00
10716;BME280;5409;42.620;23.316;2023-02-13T04:01:56;93851.09;;;-3.60;100.00
10716;BME280;5409;42.620;23.316;2023-02-13T04:04:30;93836.38;;;-3.58;100.00
10716;BME280;5409;42.620;23.316;2023-02-13T04:07:03;93837.75;;;-3.60;100.00
10716;BME280;5409;42.620;23.316;2023-02-13T04:09:35;93839.03;;;-3.58;100.00
10716;BME280;5409;42.620;23.316;2023-02-13T04:12:08;93832.28;;;-3.64;100.00
10716;BME280;5409;42.620;23.316;2023-02-13T04:14:42;93843.09;;;-3.60;100.00
10716;BME280;5409;42.620;23.316;2023-02-13T04:17:16;93850.00;;;-3.59;100.00
10716;BME280;5409;42.620;23.316;2023-02-13T04:19:45;93839.97;;;-3.71;100.00
10716;BME280;5409;42.620;23.316;2023-02-13T04:22:13;93852.06;;;-3.73;100.00
10716;BME280;5409;42.620;23.316;2023-02-13T04:24:41;93850.19;;;-3.64;100.00
10716;BME280;5409;42.620;23.316;2023-02-13T04:27:09;93848.59;;;-3.74;100.00
10716;BME280;5409;42.620;23.316;2023-02-13T04:29:38;93854.22;;;-3.67;100.00
10716;BME280;5409;42.620;23.316;2023-02-13T04:32:05;93846.09;;;-3.62;100.00
10716;BME280;5409;42.620;23.316;2023-02-13T04:34:32;93847.97;;;-3.54;100.00
10716;BME280;5409;42.620;23.316;2023-02-13T04:36:59;93848.28;;;-3.47;100.00
10716;BME280;5409;42.620;23.316;2023-02-13T04:39:26;93832.91;;;-3.67;100.00
10716;BME280;5409;42.620;23.316;2023-02-13T04:41:54;93844.69;;;-3.68;100.00
10716;BME280;5409;42.620;23.316;2023-02-13T04:44:21;93834.66;;;-3.71;100.00
10716;BME280;5409;42.620;23.316;2023-02-13T04:46:47;93836.38;;;-3.66;100.00
10716;BME280;5409;42.620;23.316;2023-02-13T04:49:14;93821.97;;;-3.82;100.00
10716;BME280;5409;42.620;23.316;2023-02-13T04:51:41;93843.25;;;-3.74;100.00
10716;BME280;5409;42.620;23.316;2023-02-13T04:54:09;93848.28;;;-3.81;100.00
10716;BME280;5409;42.620;23.316;2023-02-13T04:56:36;93839.66;;;-3.78;100.00
10716;BME280;5409;42.620;23.316;2023-02-13T04:59:04;93852.34;;;-3.75;100.00
10716;BME280;5409;42.620;23.316;2023-02-13T05:01:31;93863.81;;;-3.74;100.00
10716;BME280;5409;42.620;23.316;2023-02-13T05:03:58;93867.88;;;-3.85;100.00
10716;BME280;5409;42.620;23.316;2023-02-13T05:06:24;93874.13;;;-3.90;100.00
10716;BME280;5409;42.620;23.316;2023-02-13T05:08:51;93881.19;;;-3.85;100.00
10716;BME280;5409;42.620;23.316;2023-02-13T05:11:18;93876.47;;;-3.80;100.00
10716;BME280;5409;42.620;23.316;2023-02-13T05:13:45;93876.94;;;-3.78;100.00
10716;BME280;5409;42.620;23.316;2023-02-13T05:16:13;93876.66;;;-3.68;100.00
10716;BME280;5409;42.620;23.316;2023-02-13T05:18:40;93853.91;;;-3.74;100.00
10716;BME280;5409;42.620;23.316;2023-02-13T05:21:07;93873.50;;;-3.36;100.00
10716;BME280;5409;42.620;23.316;2023-02-13T05:23:51;93878.03;;;-3.28;100.00
10716;BME280;5409;42.620;23.316;2023-02-13T05:26:18;66203.50;;;-140.83;100.00
10716;BME280;5409;42.620;23.316;2023-02-13T05:28:44;66203.50;;;-140.83;100.00
10716;BME280;5409;42.620;23.316;2023-02-13T05:31:30;66203.50;;;-140.83;100.00
10716;BME280;5409;42.620;23.316;2023-02-13T05:33:57;66203.50;;;-140.83;100.00
10716;BME280;5409;42.620;23.316;2023-02-13T05:36:24;66203.50;;;-140.83;100.00
10716;BME280;5409;42.620;23.316;2023-02-13T05:38:51;66203.50;;;-140.83;100.00
10716;BME280;5409;42.620;23.316;2023-02-13T05:41:18;66203.50;;;-140.83;100.00
10716;BME280;5409;42.620;23.316;2023-02-13T05:43:44;66203.50;;;-140.83;100.00
10716;BME280;5409;42.620;23.316;2023-02-13T05:46:11;66203.50;;;-140.83;100.00
10716;BME280;5409;42.620;23.316;2023-02-13T05:48:40;66203.50;;;-140.83;100.00
10716;BME280;5409;42.620;23.316;2023-02-13T05:51:07;66203.50;;;-140.83;100.00
10716;BME280;5409;42.620;23.316;2023-02-13T05:53:33;66203.50;;;-140.83;100.00
10716;BME280;5409;42.620;23.316;2023-02-13T05:56:00;66203.50;;;-140.83;100.00
10716;BME280;5409;42.620;23.316;2023-02-13T05:58:28;66203.50;;;-140.83;100.00
10716;BME280;5409;42.620;23.316;2023-02-13T06:00:56;66203.50;;;-140.83;100.00
10716;BME280;5409;42.620;23.316;2023-02-13T06:03:23;66203.50;;;-140.83;100.00
10716;BME280;5409;42.620;23.316;2023-02-13T06:05:51;66203.50;;;-140.83;100.00
10716;BME280;5409;42.620;23.316;2023-02-13T06:08:18;66203.50;;;-140.83;100.00
10716;BME280;5409;42.620;23.316;2023-02-13T06:10:46;66203.50;;;-140.83;100.00
10716;BME280;5409;42.620;23.316;2023-02-13T06:13:13;66203.50;;;-140.83;100.00
10716;BME280;5409;42.620;23.316;2023-02-13T06:15:40;66203.50;;;-140.83;100.00
10716;BME280;5409;42.620;23.316;2023-02-13T06:18:07;66203.50;;;-140.83;100.00
10716;BME280;5409;42.620;23.316;2023-02-13T06:20:34;66203.50;;;-140.83;100.00
10716;BME280;5409;42.620;23.316;2023-02-13T06:23:03;66203.50;;;-140.83;100.00
10716;BME280;5409;42.620;23.316;2023-02-13T06:25:30;66203.50;;;-140.83;100.00
10716;BME280;5409;42.620;23.316;2023-02-13T06:27:57;66203.50;;;-140.83;100.00
10716;BME280;5409;42.620;23.316;2023-02-13T06:30:23;66203.50;;;-140.83;100.00
10716;BME280;5409;42.620;23.316;2023-02-13T06:32:51;66203.50;;;-140.83;100.00
10716;BME280;5409;42.620;23.316;2023-02-13T06:35:18;66203.50;;;-140.83;100.00
10716;BME280;5409;42.620;23.316;2023-02-13T06:37:45;66203.50;;;-140.83;100.00
10716;BME280;5409;42.620;23.316;2023-02-13T06:40:15;66203.50;;;-140.83;100.00
10716;BME280;5409;42.620;23.316;2023-02-13T06:42:42;66203.50;;;-140.83;100.00
10716;BME280;5409;42.620;23.316;2023-02-13T06:45:09;66203.50;;;-140.83;100.00
10716;BME280;5409;42.620;23.316;2023-02-13T06:47:40;66203.50;;;-140.83;100.00
10716;BME280;5409;42.620;23.316;2023-02-13T06:50:07;66203.50;;;-140.83;100.00
10716;BME280;5409;42.620;23.316;2023-02-13T06:52:34;66203.50;;;-140.83;100.00
10716;BME280;5409;42.620;23.316;2023-02-13T06:55:01;66203.50;;;-140.83;100.00
10716;BME280;5409;42.620;23.316;2023-02-13T06:57:29;66203.50;;;-140.83;100.00
10716;BME280;5409;42.620;23.316;2023-02-13T06:59:58;66203.50;;;-140.83;100.00
10716;BME280;5409;42.620;23.316;2023-02-13T07:02:25;66203.50;;;-140.83;100.00
10716;BME280;5409;42.620;23.316;2023-02-13T07:04:51;66203.50;;;-140.83;100.00
10716;BME280;5409;42.620;23.316;2023-02-13T07:07:18;66203.50;;;-140.83;100.00
10716;BME280;5409;42.620;23.316;2023-02-13T07:09:45;66203.50;;;-140.83;100.00
10716;BME280;5409;42.620;23.316;2023-02-13T07:12:12;66203.50;;;-140.83;100.00
10716;BME280;5409;42.620;23.316;2023-02-13T07:14:40;66203.50;;;-140.83;100.00
10716;BME280;5409;42.620;23.316;2023-02-13T07:17:07;66203.50;;;-140.83;100.00
10716;BME280;5409;42.620;23.316;2023-02-13T07:19:35;66203.50;;;-140.83;100.00
10716;BME280;5409;42.620;23.316;2023-02-13T07:22:02;66203.50;;;-140.83;100.00
10716;BME280;5409;42.620;23.316;2023-02-13T07:24:29;66203.50;;;-140.83;100.00
10716;BME280;5409;42.620;23.316;2023-02-13T07:26:58;66203.50;;;-140.83;100.00
10716;BME280;5409;42.620;23.316;2023-02-13T07:29:24;66203.50;;;-140.83;100.00
10716;BME280;5409;42.620;23.316;2023-02-13T07:31:53;66203.50;;;-140.83;100.00
10716;BME280;5409;42.620;23.316;2023-02-13T07:34:19;66203.50;;;-140.83;100.00
10716;BME280;5409;42.620;23.316;2023-02-13T07:36:46;66203.50;;;-140.83;100.00
10716;BME280;5409;42.620;23.316;2023-02-13T07:39:13;66203.50;;;-140.83;100.00
10716;BME280;5409;42.620;23.316;2023-02-13T07:41:40;66203.50;;;-140.83;100.00
10716;BME280;5409;42.620;23.316;2023-02-13T07:44:07;66203.50;;;-140.83;100.00
10716;BME280;5409;42.620;23.316;2023-02-13T07:46:34;66203.50;;;-140.83;100.00
10716;BME280;5409;42.620;23.316;2023-02-13T07:49:02;66203.50;;;-140.83;100.00
10716;BME280;5409;42.620;23.316;2023-02-13T07:51:29;66203.50;;;-140.83;100.00
10716;BME280;5409;42.620;23.316;2023-02-13T07:53:55;66203.50;;;-140.83;100.00
10716;BME280;5409;42.620;23.316;2023-02-13T07:56:22;66203.50;;;-140.83;100.00
10716;BME280;5409;42.620;23.316;2023-02-13T07:58:49;66203.50;;;-140.83;100.00
10716;BME280;5409;42.620;23.316;2023-02-13T08:01:16;66203.50;;;-140.83;100.00
10716;BME280;5409;42.620;23.316;2023-02-13T08:03:47;66203.50;;;-140.83;100.00
10716;BME280;5409;42.620;23.316;2023-02-13T08:06:17;66203.50;;;-140.83;100.00
10716;BME280;5409;42.620;23.316;2023-02-13T08:08:45;66203.50;;;-140.83;100.00
10716;BME280;5409;42.620;23.316;2023-02-13T08:11:21;66203.50;;;-140.83;100.00
10716;BME280;5409;42.620;23.316;2023-02-13T08:14:06;66203.50;;;-140.83;100.00
10716;BME280;5409;42.620;23.316;2023-02-13T08:16:33;66203.50;;;-140.83;100.00
10716;BME280;5409;42.620;23.316;2023-02-13T08:19:00;66203.50;;;-140.83;100.00
10716;BME280;5409;42.620;23.316;2023-02-13T08:21:29;66203.50;;;-140.83;100.00
10716;BME280;5409;42.620;23.316;2023-02-13T08:23:56;66203.50;;;-140.83;100.00
10716;BME280;5409;42.620;23.316;2023-02-13T08:26:23;66203.50;;;-140.83;100.00
10716;BME280;5409;42.620;23.316;2023-02-13T08:28:50;66203.50;;;-140.83;100.00
10716;BME280;5409;42.620;23.316;2023-02-13T08:31:16;66203.50;;;-140.83;100.00
10716;BME280;5409;42.620;23.316;2023-02-13T08:33:43;66203.50;;;-140.83;100.00
10716;BME280;5409;42.620;23.316;2023-02-13T08:36:10;66203.50;;;-140.83;100.00
10716;BME280;5409;42.620;23.316;2023-02-13T08:38:38;66203.50;;;-140.83;100.00
10716;BME280;5409;42.620;23.316;2023-02-13T08:41:05;66203.50;;;-140.83;100.00
10716;BME280;5409;42.620;23.316;2023-02-13T08:43:32;66203.50;;;-140.83;100.00
10716;BME280;5409;42.620;23.316;2023-02-13T08:45:59;66203.50;;;-140.83;100.00
10716;BME280;5409;42.620;23.316;2023-02-13T08:48:26;66203.50;;;-140.83;100.00
10716;BME280;5409;42.620;23.316;2023-02-13T08:50:53;66203.50;;;-140.83;100.00
10716;BME280;5409;42.620;23.316;2023-02-13T08:53:19;66203.50;;;-140.83;100.00
10716;BME280;5409;42.620;23.316;2023-02-13T08:55:52;66203.50;;;-140.83;100.00
10716;BME280;5409;42.620;23.316;2023-02-13T08:58:19;66203.50;;;-140.83;100.00
10716;BME280;5409;42.620;23.316;2023-02-13T09:00:46;66203.50;;;-140.83;100.00
10716;BME280;5409;42.620;23.316;2023-02-13T09:03:13;66203.50;;;-140.83;100.00
10716;BME280;5409;42.620;23.316;2023-02-13T09:05:40;66203.50;;;-140.83;100.00
10716;BME280;5409;42.620;23.316;2023-02-13T09:08:07;66203.50;;;-140.83;100.00
10716;BME280;5409;42.620;23.316;2023-02-13T09:10:36;66203.50;;;-140.83;100.00
10716;BME280;5409;42.620;23.316;2023-02-13T09:13:05;66203.50;;;-140.83;100.00
10716;BME280;5409;42.620;23.316;2023-02-13T09:15:32;66203.50;;;-140.83;100.00
10716;BME280;5409;42.620;23.316;2023-02-13T09:17:59;66203.50;;;-140.83;100.00
10716;BME280;5409;42.620;23.316;2023-02-13T09:20:26;66203.50;;;-140.83;100.00
10716;BME280;5409;42.620;23.316;2023-02-13T09:22:54;66203.50;;;-140.83;100.00
10716;BME280;5409;42.620;23.316;2023-02-13T09:25:26;66203.50;;;-140.83;100.00
10716;BME280;5409;42.620;23.316;2023-02-13T09:27:53;66203.50;;;-140.83;100.00
10716;BME280;5409;42.620;23.316;2023-02-13T09:30:21;66203.50;;;-140.83;100.00
10716;BME280;5409;42.620;23.316;2023-02-13T09:32:48;66203.50;;;-140.83;100.00
10716;BME280;5409;42.620;23.316;2023-02-13T09:35:16;66203.50;;;-140.83;100.00
10716;BME280;5409;42.620;23.316;2023-02-13T09:37:43;66203.50;;;-140.83;100.00
10716;BME280;5409;42.620;23.316;2023-02-13T09:40:17;66203.50;;;-140.83;100.00
10716;BME280;5409;42.620;23.316;2023-02-13T09:42:46;66203.50;;;-140.83;100.00
10716;BME280;5409;42.620;23.316;2023-02-13T09:45:15;66203.50;;;-140.83;100.00
10716;BME280;5409;42.620;23.316;2023-02-13T09:47:46;66203.50;;;-140.83;100.00
10716;BME280;5409;42.620;23.316;2023-02-13T09:50:17;66203.50;;;-140.83;100.00
10716;BME280;5409;42.620;23.316;2023-02-13T09:52:48;66203.50;;;-140.83;100.00
10716;BME280;5409;42.620;23.316;2023-02-13T09:55:18;66203.50;;;-140.83;100.00
10716;BME280;5409;42.620;23.316;2023-02-13T09:57:50;66203.50;;;-140.83;100.00
10716;BME280;5409;42.620;23.316;2023-02-13T10:00:23;66203.50;;;-140.83;100.00
10716;BME280;5409;42.620;23.316;2023-02-13T10:05:57;66203.50;;;-140.83;100.00
10716;BME280;5409;42.620;23.316;2023-02-13T10:08:37;66203.50;;;-140.83;100.00
10716;BME280;5409;42.620;23.316;2023-02-13T10:11:16;66203.50;;;-140.83;100.00
10716;BME280;5409;42.620;23.316;2023-02-13T10:13:55;66203.50;;;-140.83;100.00
10716;BME280;5409;42.620;23.316;2023-02-13T10:16:28;66203.50;;;-140.83;100.00
10716;BME280;5409;42.620;23.316;2023-02-13T10:18:59;66203.50;;;-140.83;100.00
10716;BME280;5409;42.620;23.316;2023-02-13T10:21:35;66203.50;;;-140.83;100.00
10716;BME280;5409;42.620;23.316;2023-02-13T10:24:09;66203.50;;;-140.83;100.00
10716;BME280;5409;42.620;23.316;2023-02-13T10:26:39;66203.50;;;-140.83;100.00
10716;BME280;5409;42.620;23.316;2023-02-13T10:29:14;66203.50;;;-140.83;100.00
10716;BME280;5409;42.620;23.316;2023-02-13T10:32:04;66203.50;;;-140.83;100.00
10716;BME280;5409;42.620;23.316;2023-02-13T10:34:35;66203.50;;;-140.83;100.00
10716;BME280;5409;42.620;23.316;2023-02-13T10:37:10;66203.50;;;-140.83;100.00
10716;BME280;5409;42.620;23.316;2023-02-13T10:39:40;66203.50;;;-140.83;100.00
10716;BME280;5409;42.620;23.316;2023-02-13T10:42:16;66203.50;;;-140.83;100.00
10716;BME280;5409;42.620;23.316;2023-02-13T10:44:54;66203.50;;;-140.83;100.00
10716;BME280;5409;42.620;23.316;2023-02-13T10:47:35;66203.50;;;-140.83;100.00
10716;BME280;5409;42.620;23.316;2023-02-13T10:50:13;66203.50;;;-140.83;100.00
10716;BME280;5409;42.620;23.316;2023-02-13T10:52:50;66203.50;;;-140.83;100.00
10716;BME280;5409;42.620;23.316;2023-02-13T10:55:34;66203.50;;;-140.83;100.00
10716;BME280;5409;42.620;23.316;2023-02-13T10:58:11;66203.50;;;-140.83;100.00
10716;BME280;5409;42.620;23.316;2023-02-13T11:00:44;66203.50;;;-140.83;100.00
10716;BME280;5409;42.620;23.316;2023-02-13T11:03:17;66203.50;;;-140.83;100.00
10716;BME280;5409;42.620;23.316;2023-02-13T11:05:45;66203.50;;;-140.83;100.00
10716;BME280;5409;42.620;23.316;2023-02-13T11:08:17;66203.50;;;-140.83;100.00
10716;BME280;5409;42.620;23.316;2023-02-13T11:10:46;66203.50;;;-140.83;100.00
10716;BME280;5409;42.620;23.316;2023-02-13T11:13:17;66203.50;;;-140.83;100.00
10716;BME280;5409;42.620;23.316;2023-02-13T11:15:59;66203.50;;;-140.83;100.00
10716;BME280;5409;42.620;23.316;2023-02-13T11:18:28;66203.50;;;-140.83;100.00
10716;BME280;5409;42.620;23.316;2023-02-13T11:21:00;66203.50;;;-140.83;100.00
10716;BME280;5409;42.620;23.316;2023-02-13T11:23:39;66203.50;;;-140.83;100.00
10716;BME280;5409;42.620;23.316;2023-02-13T11:26:10;66203.50;;;-140.83;100.00
10716;BME280;5409;42.620;23.316;2023-02-13T11:28:43;66203.50;;;-140.83;100.00
10716;BME280;5409;42.620;23.316;2023-02-13T11:31:18;66203.50;;;-140.83;100.00
10716;BME280;5409;42.620;23.316;2023-02-13T11:33:44;66203.50;;;-140.83;100.00
10716;BME280;5409;42.620;23.316;2023-02-13T11:36:14;66203.50;;;-140.83;100.00
10716;BME280;5409;42.620;23.316;2023-02-13T11:38:42;66203.50;;;-140.83;100.00
10716;BME280;5409;42.620;23.316;2023-02-13T11:41:11;66203.50;;;-140.83;100.00
10716;BME280;5409;42.620;23.316;2023-02-13T11:43:44;66203.50;;;-140.83;100.00
10716;BME280;5409;42.620;23.316;2023-02-13T11:46:17;66203.50;;;-140.83;100.00
10716;BME280;5409;42.620;23.316;2023-02-13T11:48:56;66203.50;;;-140.83;100.00
10716;BME280;5409;42.620;23.316;2023-02-13T11:51:38;66203.50;;;-140.83;100.00
10716;BME280;5409;42.620;23.316;2023-02-13T11:54:22;66203.50;;;-140.83;100.00
10716;BME280;5409;42.620;23.316;2023-02-13T11:56:51;66203.50;;;-140.83;100.00
10716;BME280;5409;42.620;23.316;2023-02-13T11:59:21;66203.50;;;-140.83;100.00
10716;BME280;5409;42.620;23.316;2023-02-13T12:02:02;66203.50;;;-140.83;100.00
10716;BME280;5409;42.620;23.316;2023-02-13T12:04:29;66203.50;;;-140.83;100.00
10716;BME280;5409;42.620;23.316;2023-02-13T12:07:00;66203.50;;;-140.83;100.00
10716;BME280;5409;42.620;23.316;2023-02-13T12:09:30;66203.50;;;-140.83;100.00
10716;BME280;5409;42.620;23.316;2023-02-13T12:11:59;66203.50;;;-140.83;100.00
10716;BME280;5409;42.620;23.316;2023-02-13T12:14:31;66203.50;;;-140.83;100.00
10716;BME280;5409;42.620;23.316;2023-02-13T12:17:04;66203.50;;;-140.83;100.00
10716;BME280;5409;42.620;23.316;2023-02-13T12:19:36;66203.50;;;-140.83;100.00
10716;BME280;5409;42.620;23.316;2023-02-13T12:22:22;66203.50;;;-140.83;100.00
10716;BME280;5409;42.620;23.316;2023-02-13T12:25:20;66203.50;;;-140.83;100.00
10716;BME280;5409;42.620;23.316;2023-02-13T12:27:58;66203.50;;;-140.83;100.00
10716;BME280;5409;42.620;23.316;2023-02-13T12:30:48;66203.50;;;-140.83;100.00
10716;BME280;5409;42.620;23.316;2023-02-13T12:33:30;66203.50;;;-140.83;100.00
10716;BME280;5409;42.620;23.316;2023-02-13T12:36:01;66203.50;;;-140.83;100.00
10716;BME280;5409;42.620;23.316;2023-02-13T12:38:44;66203.50;;;-140.83;100.00
10716;BME280;5409;42.620;23.316;2023-02-13T12:41:20;66203.50;;;-140.83;100.00
10716;BME280;5409;42.620;23.316;2023-02-13T12:44:05;66203.50;;;-140.83;100.00
10716;BME280;5409;42.620;23.316;2023-02-13T12:46:39;66203.50;;;-140.83;100.00
10716;BME280;5409;42.620;23.316;2023-02-13T12:49:21;66203.50;;;-140.83;100.00
10716;BME280;5409;42.620;23.316;2023-02-13T12:52:01;66203.50;;;-140.83;100.00
10716;BME280;5409;42.620;23.316;2023-02-13T12:54:42;66203.50;;;-140.83;100.00
10716;BME280;5409;42.620;23.316;2023-02-13T12:57:28;66203.50;;;-140.83;100.00
10716;BME280;5409;42.620;23.316;2023-02-13T13:00:16;66203.50;;;-140.83;100.00
10716;BME280;5409;42.620;23.316;2023-02-13T13:02:54;66203.50;;;-140.83;100.00
10716;BME280;5409;42.620;23.316;2023-02-13T13:05:40;66203.50;;;-140.83;100.00
10716;BME280;5409;42.620;23.316;2023-02-13T13:08:27;66203.50;;;-140.83;100.00